Time;durP1;ratioP1;P1;durP2;ratioP2;P2;SDS_P1;SDS_P2;PMS_P1;PMS_P2;Temp;Humidity;BMP_temperature;BMP_pressure;BME280_temperature;BME280_humidity;BME280_pressure;Samples;Min_cycle;Max_cycle;Signal;HPM_P1;HPM_P2
2022/09/06 00:00:41;;;;;;;1999.90;999.90;;;18.20;99.90;;;;;;5013706;28;20517;-71
2022/09/06 00:03:09;;;;;;;1999.90;999.90;;;18.20;99.90;;;;;;5018113;28;20848;-71
2022/09/06 00:05:36;;;;;;;1999.90;999.90;;;18.20;99.90;;;;;;5019935;28;20954;-70
2022/09/06 00:08:05;;;;;;;1999.90;999.90;;;18.20;99.90;;;;;;5015824;28;20460;-71
2022/09/06 00:10:32;;;;;;;1999.90;999.90;;;18.20;99.90;;;;;;5010070;28;20514;-70
2022/09/06 00:13:02;;;;;;;1999.90;999.90;;;18.20;99.90;;;;;;5016039;28;20480;-70
2022/09/06 00:15:29;;;;;;;1999.90;999.90;;;18.10;99.90;;;;;;5015579;28;20988;-70
2022/09/06 00:17:58;;;;;;;1999.90;999.90;;;18.10;99.90;;;;;;5018574;28;20456;-70
2022/09/06 00:20:26;;;;;;;1999.90;999.90;;;18.10;99.90;;;;;;5014996;28;20603;-71
2022/09/06 00:22:57;;;;;;;1999.90;999.90;;;18.10;99.90;;;;;;5010839;28;20488;-70
2022/09/06 00:25:24;;;;;;;1999.90;999.90;;;18.20;99.90;;;;;;5015694;28;20461;-70
2022/09/06 00:27:55;;;;;;;1999.90;999.90;;;18.10;99.90;;;;;;5015156;28;20467;-70
2022/09/06 00:30:21;;;;;;;1999.90;999.90;;;18.00;99.90;;;;;;5022021;28;20844;-71
2022/09/06 00:32:48;;;;;;;1999.90;999.90;;;17.90;99.90;;;;;;5018302;28;20488;-70
2022/09/06 00:35:15;;;;;;;1999.90;999.90;;;17.90;99.90;;;;;;5014515;28;20456;-69
2022/09/06 00:37:43;;;;;;;1999.90;999.90;;;17.80;99.90;;;;;;5014733;28;20479;-70
2022/09/06 00:40:10;;;;;;;1999.90;999.90;;;17.80;99.90;;;;;;5020275;28;20518;-71
2022/09/06 00:42:37;;;;;;;1999.90;999.90;;;17.80;99.90;;;;;;5010719;28;20484;-71
2022/09/06 00:45:06;;;;;;;1999.90;999.90;;;17.80;99.90;;;;;;5018905;28;20464;-71
2022/09/06 00:47:34;;;;;;;1999.90;999.90;;;17.80;99.90;;;;;;5011405;28;20468;-70
2022/09/06 00:50:02;;;;;;;1999.90;999.90;;;17.80;99.90;;;;;;5011836;28;20542;-70
2022/09/06 00:52:30;;;;;;;1999.90;999.90;;;17.80;99.90;;;;;;5020561;28;20491;-69
2022/09/06 00:54:59;;;;;;;1999.90;999.90;;;17.80;99.90;;;;;;5017769;28;20925;-70
2022/09/06 00:57:27;;;;;;;1999.90;999.90;;;17.80;99.90;;;;;;5015822;28;20483;-69
2022/09/06 00:59:55;;;;;;;1999.90;999.90;;;17.70;99.90;;;;;;5011520;28;20460;-69
2022/09/06 01:02:22;;;;;;;1999.90;999.90;;;17.70;99.90;;;;;;5018341;28;20509;-70
2022/09/06 01:04:50;;;;;;;1999.90;999.90;;;17.70;99.90;;;;;;5018271;28;20841;-71
2022/09/06 01:07:24;;;;;;;1999.90;999.90;;;17.70;99.90;;;;;;5021600;28;20875;-70
2022/09/06 01:10:06;;;;;;;1999.90;999.90;;;17.60;99.90;;;;;;5017434;28;20477;-71
2022/09/06 01:12:41;;;;;;;1999.90;999.90;;;17.70;99.90;;;;;;5010037;28;20550;-70
2022/09/06 01:15:19;;;;;;;1999.90;999.90;;;17.70;99.90;;;;;;5020377;28;20455;-70
2022/09/06 01:17:55;;;;;;;1999.90;999.90;;;17.70;99.90;;;;;;5018897;28;20479;-71
2022/09/06 01:20:35;;;;;;;1999.90;999.90;;;17.70;99.90;;;;;;5021578;28;20581;-70
2022/09/06 01:23:34;;;;;;;1999.90;999.90;;;17.70;99.90;;;;;;5010273;28;20479;-70
2022/09/06 01:26:15;;;;;;;1999.90;999.90;;;17.70;99.90;;;;;;5014688;28;20732;-70
2022/09/06 01:28:44;;;;;;;1999.90;999.90;;;17.70;99.90;;;;;;5016623;28;20521;-69
2022/09/06 01:31:23;;;;;;;1999.90;999.90;;;17.70;99.90;;;;;;5019945;28;20550;-70
2022/09/06 01:33:59;;;;;;;1999.90;999.90;;;17.60;99.90;;;;;;5017445;28;20487;-70
2022/09/06 01:36:29;;;;;;;1999.90;999.90;;;17.60;99.90;;;;;;5006317;28;20476;-72
2022/09/06 01:38:56;;;;;;;1999.90;999.90;;;17.60;99.90;;;;;;5011066;28;20464;-71
2022/09/06 01:41:23;;;;;;;1999.90;999.90;;;17.60;99.90;;;;;;5022672;28;20459;-73
2022/09/06 01:43:53;;;;;;;1999.90;999.90;;;17.60;99.90;;;;;;5019258;28;20537;-72
2022/09/06 01:46:27;;;;;;;1999.90;999.90;;;17.50;99.90;;;;;;5018476;28;20464;-70
2022/09/06 01:49:16;;;;;;;1999.90;999.90;;;17.50;99.90;;;;;;5009997;28;20468;-70
2022/09/06 01:51:56;;;;;;;1999.90;999.90;;;17.50;99.90;;;;;;5016952;28;20495;-69
2022/09/06 01:54:33;;;;;;;1999.90;999.90;;;17.50;99.90;;;;;;5021598;28;20478;-69
2022/09/06 01:57:13;;;;;;;1999.90;999.90;;;17.40;99.90;;;;;;5016005;28;20828;-72
2022/09/06 02:00:00;;;;;;;1999.90;999.90;;;17.40;99.90;;;;;;5011308;28;20464;-72
2022/09/06 02:02:34;;;;;;;1999.90;999.90;;;17.30;99.90;;;;;;5013699;28;20845;-73
2022/09/06 02:05:07;;;;;;;1999.90;999.90;;;17.40;99.90;;;;;;5018361;28;20900;-72
2022/09/06 02:07:36;;;;;;;1999.90;999.90;;;17.00;99.90;;;;;;5021895;28;20513;-72
2022/09/06 02:10:08;;;;;;;1999.90;999.90;;;17.30;99.90;;;;;;5017546;28;20847;-72
2022/09/06 02:12:38;;;;;;;1999.90;999.90;;;17.30;99.90;;;;;;5011776;28;20510;-72
2022/09/06 02:15:10;;;;;;;1999.90;999.90;;;17.30;99.90;;;;;;5018601;28;20503;-71
2022/09/06 02:17:42;;;;;;;1999.90;999.90;;;17.30;99.90;;;;;;5020583;28;20475;-73
2022/09/06 02:20:13;;;;;;;1999.90;999.90;;;17.20;99.90;;;;;;5020370;28;20573;-72
2022/09/06 02:22:44;;;;;;;1999.90;999.90;;;17.10;99.90;;;;;;5016306;28;20534;-72
2022/09/06 02:25:15;;;;;;;1999.90;999.90;;;17.10;99.90;;;;;;5009421;28;21116;-71
2022/09/06 02:27:42;;;;;;;1999.90;999.90;;;17.00;99.90;;;;;;5018369;28;20459;-73
2022/09/06 02:30:11;;;;;;;1999.90;999.90;;;17.00;99.90;;;;;;5020343;28;20455;-72
2022/09/06 02:32:42;;;;;;;1999.90;999.90;;;17.00;99.90;;;;;;5021044;28;20513;-71
2022/09/06 02:35:13;;;;;;;1999.90;999.90;;;16.90;99.90;;;;;;5017357;28;20462;-72
2022/09/06 02:37:40;;;;;;;1999.90;999.90;;;16.90;99.90;;;;;;5008806;28;20480;-72
2022/09/06 02:40:09;;;;;;;1999.90;999.90;;;16.90;99.90;;;;;;5010640;28;20456;-71
2022/09/06 02:42:36;;;;;;;1999.90;999.90;;;16.80;99.90;;;;;;5021781;28;20533;-71
2022/09/06 02:45:04;;;;;;;1999.90;999.90;;;16.80;99.90;;;;;;5018774;28;20468;-72
2022/09/06 02:47:31;;;;;;;1999.90;999.90;;;16.80;99.90;;;;;;5015549;28;20468;-71
2022/09/06 02:49:58;;;;;;;1999.90;999.90;;;16.80;99.90;;;;;;5009088;28;20468;-72
2022/09/06 02:52:25;;;;;;;1999.90;999.90;;;16.80;99.90;;;;;;5016644;28;20890;-72
2022/09/06 02:54:51;;;;;;;1999.90;999.90;;;16.70;99.90;;;;;;5016421;28;20526;-73
2022/09/06 02:57:18;;;;;;;1999.90;999.90;;;16.70;99.90;;;;;;5021480;28;20480;-72
2022/09/06 02:59:45;;;;;;;1999.90;999.90;;;16.80;99.90;;;;;;5014722;28;20967;-72
2022/09/06 03:02:12;;;;;;;1999.90;999.90;;;16.70;99.90;;;;;;5011363;28;20482;-72
2022/09/06 03:04:40;;;;;;;1999.90;999.90;;;16.70;99.90;;;;;;5021120;28;20463;-70
2022/09/06 03:07:06;;;;;;;1999.90;999.90;;;16.70;99.90;;;;;;5019179;28;21011;-72
2022/09/06 03:09:33;;;;;;;1999.90;999.90;;;16.60;99.90;;;;;;5017653;28;20460;-72
2022/09/06 03:11:59;;;;;;;1999.90;999.90;;;16.60;99.90;;;;;;5008963;28;20879;-72
2022/09/06 03:14:26;;;;;;;1999.90;999.90;;;16.60;99.90;;;;;;5019232;28;20537;-71
2022/09/06 03:16:53;;;;;;;1999.90;999.90;;;16.50;99.90;;;;;;5019170;28;20475;-72
2022/09/06 03:19:20;;;;;;;1999.90;999.90;;;16.60;99.90;;;;;;5021161;28;21103;-72
2022/09/06 03:21:48;;;;;;;1999.90;999.90;;;16.50;99.90;;;;;;5009957;28;21129;-72
2022/09/06 03:24:15;;;;;;;1999.90;999.90;;;16.50;99.90;;;;;;5021110;28;20545;-72
2022/09/06 03:26:43;;;;;;;1999.90;999.90;;;16.50;99.90;;;;;;5020445;28;20483;-72
2022/09/06 03:29:09;;;;;;;1999.90;999.90;;;16.50;99.90;;;;;;5019708;28;20471;-72
2022/09/06 03:31:36;;;;;;;1999.90;999.90;;;16.50;99.90;;;;;;5015064;28;20460;-72
2022/09/06 03:34:02;;;;;;;1999.90;999.90;;;16.50;99.90;;;;;;5013323;28;20537;-72
2022/09/06 03:36:29;;;;;;;1999.90;999.90;;;16.50;99.90;;;;;;5022005;28;20537;-72
2022/09/06 03:38:57;;;;;;;1999.90;999.90;;;16.50;99.90;;;;;;5022660;28;20463;-72
2022/09/06 03:41:24;;;;;;;1999.90;999.90;;;16.50;99.90;;;;;;5025718;28;20459;-71
2022/09/06 03:43:51;;;;;;;1999.90;999.90;;;16.40;99.90;;;;;;5015684;28;20537;-72
2022/09/06 03:46:17;;;;;;;1999.90;999.90;;;16.50;99.90;;;;;;5015711;28;20459;-72
2022/09/06 03:48:44;;;;;;;1999.90;999.90;;;16.50;99.90;;;;;;5024852;28;20951;-72
2022/09/06 03:51:10;;;;;;;1999.90;999.90;;;16.40;99.90;;;;;;5024377;28;20506;-73
2022/09/06 03:53:37;;;;;;;1999.90;999.90;;;16.40;99.90;;;;;;5021263;28;20566;-72
2022/09/06 03:56:05;;;;;;;1999.90;999.90;;;16.40;99.90;;;;;;5013390;28;20456;-72
2022/09/06 03:58:32;;;;;;;1999.90;999.90;;;16.30;99.90;;;;;;5012483;28;20487;-71
2022/09/06 04:01:04;;;;;;;1999.90;999.90;;;16.30;99.90;;;;;;5011295;28;20477;-71
2022/09/06 04:03:31;;;;;;;1999.90;999.90;;;16.20;99.90;;;;;;5018072;28;20494;-71
2022/09/06 04:05:58;;;;;;;1999.90;999.90;;;16.10;99.90;;;;;;5023136;28;20468;-72
2022/09/06 04:08:25;;;;;;;1999.90;999.90;;;16.10;99.90;;;;;;5017017;28;20464;-72
2022/09/06 04:10:53;;;;;;;1999.90;999.90;;;16.10;99.90;;;;;;5021440;28;20467;-71
2022/09/06 04:13:21;;;;;;;1999.90;999.90;;;16.00;99.90;;;;;;5025719;28;20495;-70
2022/09/06 04:15:48;;;;;;;1999.90;999.90;;;16.10;99.90;;;;;;5024442;28;20474;-70
2022/09/06 04:18:15;;;;;;;1999.90;999.90;;;16.00;99.90;;;;;;5017120;28;20475;-72
2022/09/06 04:20:42;;;;;;;1999.90;999.90;;;16.00;99.90;;;;;;5013033;28;20518;-72
2022/09/06 04:23:09;;;;;;;1999.90;999.90;;;16.00;99.90;;;;;;5010333;28;20518;-71
2022/09/06 04:25:35;;;;;;;1999.90;999.90;;;16.00;99.90;;;;;;5017298;28;20464;-71
2022/09/06 04:28:02;;;;;;;1999.90;999.90;;;16.00;99.90;;;;;;5022532;28;20519;-71
2022/09/06 04:30:31;;;;;;;1999.90;999.90;;;16.00;99.90;;;;;;5015892;28;20530;-71
2022/09/06 04:32:57;;;;;;;1999.90;999.90;;;16.00;99.90;;;;;;5016953;28;20483;-72
2022/09/06 04:35:24;;;;;;;1999.90;999.90;;;16.10;99.90;;;;;;5026043;28;20459;-72
2022/09/06 04:37:50;;;;;;;1999.90;999.90;;;16.20;99.90;;;;;;5021614;28;20542;-71
2022/09/06 04:40:17;;;;;;;1999.90;999.90;;;16.10;99.90;;;;;;5014882;28;20460;-71
2022/09/06 04:42:44;;;;;;;1999.90;999.90;;;16.10;99.90;;;;;;5025271;28;20482;-71
2022/09/06 04:45:11;;;;;;;1999.90;999.90;;;16.30;99.90;;;;;;5022967;28;20456;-71
2022/09/06 04:47:38;;;;;;;1999.90;999.90;;;16.10;99.90;;;;;;5025081;28;20456;-72
2022/09/06 04:50:06;;;;;;;1999.90;999.90;;;16.00;99.90;;;;;;5010455;28;20468;-71
2022/09/06 04:52:32;;;;;;;1999.90;999.90;;;16.00;99.90;;;;;;5022252;28;20498;-70
2022/09/06 04:54:59;;;;;;;1999.90;999.90;;;16.00;99.90;;;;;;5022897;28;20509;-72
2022/09/06 04:57:26;;;;;;;1999.90;999.90;;;16.00;99.90;;;;;;5026548;28;20544;-72
2022/09/06 04:59:52;;;;;;;1999.90;999.90;;;16.00;99.90;;;;;;5023270;28;20834;-72
2022/09/06 05:02:19;;;;;;;1999.90;999.90;;;16.00;99.90;;;;;;5014706;28;20514;-70
2022/09/06 05:04:47;;;;;;;1999.90;999.90;;;16.00;99.90;;;;;;5022082;28;20463;-72
2022/09/06 05:07:14;;;;;;;1999.90;999.90;;;16.00;99.90;;;;;;5044051;22;20495;-73
2022/09/06 05:09:40;;;;;;;1999.90;999.90;;;16.00;99.90;;;;;;5031426;28;20951;-71
2022/09/06 05:12:07;;;;;;;1999.90;999.90;;;16.00;99.90;;;;;;5030368;28;20459;-77
2022/09/06 05:14:33;;;;;;;1999.90;999.90;;;16.00;99.90;;;;;;5030798;28;20455;-73
2022/09/06 05:17:00;;;;;;;1999.90;999.90;;;15.90;99.90;;;;;;5030136;28;20487;-72
2022/09/06 05:19:27;;;;;;;1999.90;999.90;;;15.90;99.90;;;;;;5030419;28;20463;-73
2022/09/06 05:21:55;;;;;;;1999.90;999.90;;;15.90;99.90;;;;;;5029465;28;20467;-71
2022/09/06 05:24:21;;;;;;;1999.90;999.90;;;16.00;99.90;;;;;;5032520;28;20451;-71
2022/09/06 05:26:48;;;;;;;1999.90;999.90;;;16.00;99.90;;;;;;5032358;28;20482;-70
2022/09/06 05:29:14;;;;;;;1999.90;999.90;;;16.00;99.90;;;;;;5029014;28;20459;-76
2022/09/06 05:31:41;;;;;;;1999.90;999.90;;;16.00;99.90;;;;;;5034100;28;20455;-74
2022/09/06 05:34:09;;;;;;;1999.90;999.90;;;16.00;99.90;;;;;;5036151;28;20465;-72
2022/09/06 05:36:37;;;;;;;1999.90;999.90;;;16.10;99.90;;;;;;5029886;28;20654;-72
2022/09/06 05:39:05;;;;;;;1999.90;999.90;;;16.10;99.90;;;;;;5029952;28;20490;-70
2022/09/06 05:41:32;;;;;;;1999.90;999.90;;;16.10;99.90;;;;;;5032057;28;20448;-72
2022/09/06 05:43:59;;;;;;;1999.90;999.90;;;16.10;99.90;;;;;;5028627;28;20818;-73
2022/09/06 05:46:26;;;;;;;1999.90;999.90;;;16.10;99.90;;;;;;5030665;28;20846;-75
2022/09/06 05:48:54;;;;;;;1999.90;999.90;;;15.80;99.90;;;;;;5032936;28;20463;-74
2022/09/06 05:51:20;;;;;;;1999.90;999.90;;;16.10;99.90;;;;;;5032723;28;20931;-73
2022/09/06 05:53:47;;;;;;;1999.90;999.90;;;16.20;99.90;;;;;;5027626;28;20959;-73
2022/09/06 05:56:15;;;;;;;1999.90;999.90;;;16.30;99.90;;;;;;5029376;28;20597;-73
2022/09/06 05:58:42;;;;;;;1999.90;999.90;;;16.30;99.90;;;;;;5028942;28;20572;-74
2022/09/06 06:01:15;;;;;;;1999.90;999.90;;;16.40;99.90;;;;;;5029781;28;20464;-74
2022/09/06 06:03:43;;;;;;;1999.90;999.90;;;16.40;99.90;;;;;;5030997;28;20467;-72
2022/09/06 06:06:10;;;;;;;1999.90;999.90;;;16.40;99.90;;;;;;5028964;28;21013;-74
2022/09/06 06:08:36;;;;;;;1999.90;999.90;;;16.40;99.90;;;;;;5030789;28;20459;-71
2022/09/06 06:11:03;;;;;;;1999.90;999.90;;;16.40;99.90;;;;;;5028272;28;21137;-75
2022/09/06 06:13:33;;;;;;;1999.90;999.90;;;16.40;99.90;;;;;;5030882;28;20513;-75
2022/09/06 06:16:00;;;;;;;1999.90;999.90;;;16.40;99.90;;;;;;5025669;28;20494;-75
2022/09/06 06:18:27;;;;;;;1999.90;999.90;;;16.30;99.90;;;;;;5029433;28;20484;-73
2022/09/06 06:21:10;;;;;;;1999.90;999.90;;;16.30;99.90;;;;;;5028229;28;20459;-71
2022/09/06 06:23:37;;;;;;;1999.90;999.90;;;16.40;99.90;;;;;;5030064;28;20519;-74
2022/09/06 06:26:04;;;;;;;1999.90;999.90;;;16.40;99.90;;;;;;5027517;28;20490;-76
2022/09/06 06:28:32;;;;;;;1999.90;999.90;;;16.50;99.90;;;;;;5029027;28;20911;-77
2022/09/06 06:30:58;;;;;;;1999.90;999.90;;;16.60;99.90;;;;;;5029250;28;20561;-72
2022/09/06 06:33:25;;;;;;;1999.90;999.90;;;16.60;99.90;;;;;;5025569;28;20455;-76
2022/09/06 06:35:59;;;;;;;1999.90;999.90;;;16.50;99.90;;;;;;5029435;28;21086;-74
2022/09/06 06:38:31;;;;;;;1999.90;999.90;;;16.50;99.90;;;;;;5026366;28;20483;-73
2022/09/06 06:40:57;;;;;;;1999.90;999.90;;;16.50;99.90;;;;;;5030041;28;20455;-73
2022/09/06 06:43:24;;;;;;;1999.90;999.90;;;16.60;99.90;;;;;;5028529;28;20513;-73
2022/09/06 06:45:52;;;;;;;1999.90;999.90;;;16.60;99.90;;;;;;5029943;28;20999;-72
2022/09/06 06:48:19;;;;;;;1999.90;999.90;;;16.60;99.90;;;;;;5028356;28;20455;-72
2022/09/06 06:50:45;;;;;;;1999.90;999.90;;;16.60;99.90;;;;;;5028433;28;20464;-72
2022/09/06 06:53:12;;;;;;;1999.90;999.90;;;16.80;99.90;;;;;;5027692;28;20455;-78
2022/09/06 06:55:38;;;;;;;1999.90;999.90;;;16.90;99.90;;;;;;5026594;28;20943;-75
2022/09/06 06:58:05;;;;;;;1999.90;999.90;;;17.00;99.90;;;;;;5028797;28;20486;-73
2022/09/06 07:00:32;;;;;;;1999.90;999.90;;;16.90;99.90;;;;;;5028060;28;20513;-73
2022/09/06 07:03:00;;;;;;;1999.90;999.90;;;17.00;99.90;;;;;;5026152;28;20511;-72
2022/09/06 07:05:27;;;;;;;1999.90;999.90;;;17.00;99.90;;;;;;5023251;28;20470;-73
2022/09/06 07:07:54;;;;;;;1999.90;999.90;;;17.10;99.90;;;;;;5028514;28;20467;-72
2022/09/06 07:10:20;;;;;;;1999.90;999.90;;;17.20;99.90;;;;;;5026116;28;20463;-73
2022/09/06 07:12:47;;;;;;;1999.90;999.90;;;17.20;99.90;;;;;;5026917;28;20464;-72
2022/09/06 07:15:14;;;;;;;1999.90;999.90;;;17.20;99.90;;;;;;5026645;28;20951;-76
2022/09/06 07:17:40;;;;;;;1999.90;999.90;;;17.20;99.90;;;;;;5027763;28;20483;-74
2022/09/06 07:20:09;;;;;;;1999.90;999.90;;;17.30;99.90;;;;;;5027874;28;20463;-73
2022/09/06 07:22:36;;;;;;;1999.90;999.90;;;17.20;99.90;;;;;;5026188;28;20490;-73
2022/09/06 07:25:02;;;;;;;1999.90;999.90;;;17.20;99.90;;;;;;5026792;28;21048;-76
2022/09/06 07:27:29;;;;;;;1999.90;999.90;;;17.40;99.90;;;;;;5024486;28;20538;-73
2022/09/06 07:29:56;;;;;;;1999.90;999.90;;;17.50;99.90;;;;;;5027194;28;20463;-73
2022/09/06 07:32:22;;;;;;;1999.90;999.90;;;17.60;99.90;;;;;;5027473;28;20459;-76
2022/09/06 07:34:49;;;;;;;1999.90;999.90;;;17.70;99.90;;;;;;5027353;28;20518;-74
2022/09/06 07:37:17;;;;;;;1999.90;999.90;;;17.70;99.90;;;;;;5031121;28;20467;-73
2022/09/06 07:39:44;;;;;;;1999.90;999.90;;;17.30;99.90;;;;;;5026159;28;20570;-75
2022/09/06 07:42:10;;;;;;;1999.90;999.90;;;17.50;99.90;;;;;;5025957;28;20452;-74
2022/09/06 07:44:37;;;;;;;1999.90;999.90;;;18.00;99.90;;;;;;5027737;28;20517;-73
2022/09/06 07:47:05;;;;;;;1999.90;999.90;;;18.50;99.90;;;;;;5026192;28;20991;-71
2022/09/06 07:49:32;;;;;;;1999.90;999.90;;;18.70;99.90;;;;;;5030843;28;20439;-73
2022/09/06 07:51:58;;;;;;;1999.90;999.90;;;18.80;99.90;;;;;;5031538;28;20513;-73
2022/09/06 07:54:26;;;;;;;1999.90;999.90;;;19.00;99.90;;;;;;5025988;28;20522;-73
2022/09/06 07:56:53;;;;;;;1999.90;999.90;;;19.10;99.90;;;;;;5028024;28;21792;-73
2022/09/06 07:59:19;;;;;;;1999.90;999.90;;;19.10;99.90;;;;;;5027399;28;20482;-72
2022/09/06 08:01:47;;;;;;;1999.90;999.90;;;18.90;99.90;;;;;;5026937;28;20459;-71
2022/09/06 08:04:14;;;;;;;1999.90;999.90;;;18.80;99.90;;;;;;5025256;28;20955;-74
2022/09/06 08:06:43;;;;;;;1999.90;999.90;;;18.90;99.90;;;;;;5025592;28;20499;-73
2022/09/06 08:09:10;;;;;;;1999.90;999.90;;;19.00;99.90;;;;;;5031056;28;20442;-76
2022/09/06 08:11:39;;;;;;;1999.90;999.90;;;19.20;99.90;;;;;;5030100;28;20470;-76
2022/09/06 08:14:08;;;;;;;1999.90;999.90;;;19.30;99.90;;;;;;5030725;28;20951;-76
2022/09/06 08:16:36;;;;;;;1999.90;999.90;;;19.30;99.90;;;;;;5030828;28;20471;-73
2022/09/06 08:19:06;;;;;;;1999.90;999.90;;;19.50;99.90;;;;;;5030568;28;20581;-71
2022/09/06 08:21:33;;;;;;;1999.90;999.90;;;19.50;99.90;;;;;;5030430;28;20470;-71
2022/09/06 08:24:02;;;;;;;1999.90;999.90;;;19.40;99.90;;;;;;5030036;28;20466;-68
2022/09/06 08:26:30;;;;;;;1999.90;999.90;;;19.40;99.90;;;;;;5031563;28;20466;-76
2022/09/06 08:28:59;;;;;;;1999.90;999.90;;;19.50;99.90;;;;;;5028053;28;20485;-70
2022/09/06 08:31:27;;;;;;;1999.90;999.90;;;19.40;99.90;;;;;;5024686;28;20463;-71
2022/09/06 08:33:55;;;;;;;1999.90;999.90;;;19.50;99.90;;;;;;5033007;28;20502;-69
2022/09/06 08:36:22;;;;;;;1999.90;999.90;;;19.70;99.90;;;;;;5030293;28;20478;-69
2022/09/06 08:38:48;;;;;;;1999.90;999.90;;;19.70;99.90;;;;;;5034179;28;20568;-70
2022/09/06 08:41:23;;;;;;;1999.90;999.90;;;19.70;99.90;;;;;;5033591;28;20459;-71
2022/09/06 08:43:54;;;;;;;1999.90;999.90;;;19.80;99.90;;;;;;5033049;28;20450;-69
2022/09/06 08:46:23;;;;;;;1999.90;999.90;;;20.20;99.90;;;;;;5031382;28;20497;-72
2022/09/06 08:48:50;;;;;;;1999.90;999.90;;;20.30;99.90;;;;;;5028112;28;20459;-70
2022/09/06 08:51:56;;;;;;;1999.90;999.90;;;20.40;99.90;;;;;;5027401;28;20525;-68
2022/09/06 08:54:28;;;;;;;1999.90;999.90;;;20.70;99.90;;;;;;4983564;28;21161;-69
2022/09/06 08:57:04;;;;;;;1999.90;999.90;;;21.20;99.90;;;;;;5032805;28;20483;-71
2022/09/06 08:59:37;;;;;;;1999.90;999.90;;;21.40;99.90;;;;;;5026650;28;21010;-71
2022/09/06 09:02:11;;;;;;;1999.90;999.90;;;21.30;99.90;;;;;;5033188;28;20971;-68
2022/09/06 09:04:42;;;;;;;1999.90;999.90;;;21.00;99.90;;;;;;5031016;28;21016;-68
2022/09/06 09:07:26;;;;;;;1999.90;999.90;;;20.90;99.90;;;;;;5030507;28;21063;-71
2022/09/06 09:09:55;;;;;;;1999.90;999.90;;;20.80;99.90;;;;;;5033656;28;20493;-72
2022/09/06 09:12:23;;;;;;;1999.90;999.90;;;20.60;99.90;;;;;;5029645;28;20487;-69
2022/09/06 09:14:55;;;;;;;1999.90;999.90;;;20.60;99.90;;;;;;5024629;28;20464;-73
2022/09/06 09:17:27;;;;;;;1999.90;999.90;;;20.70;99.90;;;;;;5032573;28;20501;-71
2022/09/06 09:19:55;;;;;;;1999.90;999.90;;;21.20;99.90;;;;;;5033333;28;20483;-70
2022/09/06 09:22:24;;;;;;;1999.90;999.90;;;21.50;99.90;;;;;;5034046;28;20447;-71
2022/09/06 09:24:51;;;;;;;1999.90;999.90;;;21.90;99.90;;;;;;5030909;28;21021;-69
2022/09/06 09:27:21;;;;;;;1999.90;999.90;;;22.30;99.90;;;;;;5031092;28;20569;-70
2022/09/06 09:30:00;;;;;;;1999.90;999.90;;;22.20;99.90;;;;;;5029148;28;20548;-67
2022/09/06 09:32:32;;;;;;;1999.90;999.90;;;22.20;99.90;;;;;;5024820;28;20462;-71
2022/09/06 09:35:22;;;;;;;1999.90;999.90;;;22.10;99.90;;;;;;5028239;28;20521;-71
2022/09/06 09:37:55;;;;;;;1999.90;999.90;;;22.20;99.90;;;;;;5027597;28;20494;-72
2022/09/06 09:40:29;;;;;;;1999.90;999.90;;;22.10;99.90;;;;;;5030344;28;20491;-69
2022/09/06 09:43:08;;;;;;;1999.90;999.90;;;22.00;99.90;;;;;;5028837;28;20463;-72
2022/09/06 09:45:35;;;;;;;1999.90;999.90;;;21.90;99.90;;;;;;5026671;28;20443;-71
2022/09/06 09:48:19;;;;;;;1999.90;999.90;;;21.90;99.90;;;;;;5030281;28;20467;-72
2022/09/06 09:50:45;;;;;;;1999.90;999.90;;;21.90;99.90;;;;;;5028763;28;20958;-71
2022/09/06 09:53:14;;;;;;;1999.90;999.90;;;22.10;99.90;;;;;;5030608;28;21040;-69
2022/09/06 09:55:42;;;;;;;1999.90;999.90;;;22.40;99.90;;;;;;5030869;28;20521;-71
2022/09/06 09:58:20;;;;;;;1999.90;999.90;;;22.70;99.90;;;;;;5028972;28;20468;-69
2022/09/06 10:00:46;;;;;;;1999.90;999.90;;;23.00;99.90;;;;;;5029517;28;20947;-69
2022/09/06 10:03:17;;;;;;;1999.90;999.90;;;22.80;99.90;;;;;;5029511;28;20529;-73
2022/09/06 10:05:55;;;;;;;1999.90;999.90;;;22.60;99.90;;;;;;5029289;28;20486;-74
2022/09/06 10:08:25;;;;;;;1999.90;999.90;;;22.50;99.90;;;;;;5028681;28;20517;-71
2022/09/06 10:10:52;;;;;;;1999.90;999.90;;;22.60;99.90;;;;;;5026321;28;20462;-72
2022/09/06 10:13:20;;;;;;;1999.90;999.90;;;22.90;99.90;;;;;;5029622;28;20459;-72
2022/09/06 10:15:49;;;;;;;1999.90;999.90;;;23.10;99.90;;;;;;5027977;28;20487;-72
2022/09/06 10:18:28;;;;;;;1999.90;999.90;;;23.20;99.90;;;;;;5023437;28;20460;-72
2022/09/06 10:20:59;;;;;;;1999.90;999.90;;;23.20;99.90;;;;;;5026789;28;20455;-69
2022/09/06 10:23:34;;;;;;;1999.90;999.90;;;23.40;99.90;;;;;;5028335;28;20915;-69
2022/09/06 10:26:06;;;;;;;1999.90;999.90;;;23.10;99.90;;;;;;5029412;28;20487;-72
2022/09/06 10:28:35;;;;;;;1999.90;999.90;;;22.70;99.90;;;;;;5025687;28;20463;-71
2022/09/06 10:31:28;;;;;;;1999.90;999.90;;;22.40;99.90;;;;;;5029680;28;20879;-71
2022/09/06 10:34:07;;;;;;;1999.90;999.90;;;22.20;99.90;;;;;;5016292;28;20517;-70
2022/09/06 10:36:35;;;;;;;1999.90;999.90;;;22.10;99.90;;;;;;5024488;28;20483;-71
2022/09/06 10:39:07;;;;;;;1999.90;999.90;;;22.00;99.90;;;;;;5029604;28;20475;-69
2022/09/06 10:41:52;;;;;;;1999.90;999.90;;;21.90;99.90;;;;;;5025069;28;20467;-69
2022/09/06 10:44:35;;;;;;;1999.90;999.90;;;21.90;99.90;;;;;;5028782;28;20459;-69
2022/09/06 10:47:10;;;;;;;1999.90;999.90;;;21.90;99.90;;;;;;5029313;28;20540;-71
2022/09/06 10:49:39;;;;;;;1999.90;999.90;;;22.10;99.90;;;;;;5029233;28;20459;-72
2022/09/06 10:52:10;;;;;;;1999.90;999.90;;;22.10;99.90;;;;;;5029050;28;20508;-72
2022/09/06 10:54:40;;;;;;;1999.90;999.90;;;22.20;99.90;;;;;;5029289;28;20959;-72
2022/09/06 10:57:13;;;;;;;1999.90;999.90;;;22.20;99.90;;;;;;5028860;28;21189;-72
2022/09/06 10:59:46;;;;;;;1999.90;999.90;;;22.40;99.90;;;;;;5030094;28;20566;-72
2022/09/06 11:02:31;;;;;;;1999.90;999.90;;;22.50;99.90;;;;;;5027822;28;20447;-72
2022/09/06 11:05:05;;;;;;;1999.90;999.90;;;22.50;99.90;;;;;;5028395;28;20574;-71
2022/09/06 11:07:33;;;;;;;1999.90;999.90;;;22.60;99.90;;;;;;5057381;22;20539;-71
2022/09/06 11:10:06;;;;;;;1999.90;999.90;;;22.80;99.90;;;;;;5045621;28;20493;-71
2022/09/06 11:12:37;;;;;;;1999.90;999.90;;;23.10;99.90;;;;;;5050450;28;20454;-70
2022/09/06 11:15:06;;;;;;;1999.90;999.90;;;23.30;99.90;;;;;;5048498;28;20547;-71
2022/09/06 11:17:40;;;;;;;1999.90;999.90;;;23.60;99.90;;;;;;5042662;28;20482;-71
2022/09/06 11:20:14;;;;;;;1999.90;999.90;;;23.70;99.90;;;;;;5045838;28;21038;-70
2022/09/06 11:23:22;;;;;;;1999.90;999.90;;;23.80;99.90;;;;;;5048125;28;20458;-71
2022/09/06 11:26:34;;;;;;;1999.90;999.90;;;23.80;99.90;;;;;;5055056;28;20984;-72
2022/09/06 11:29:06;;;;;;;1999.90;999.90;;;24.00;99.90;;;;;;5064769;28;20445;-72
2022/09/06 11:31:47;;;;;;;1999.90;999.90;;;24.20;99.90;;;;;;5063095;28;20470;-70
2022/09/06 11:34:21;;;;;;;1999.90;999.90;;;24.00;99.90;;;;;;5051122;28;20438;-69
2022/09/06 11:36:51;;;;;;;1999.90;999.90;;;23.90;99.90;;;;;;5051261;28;20463;-71
2022/09/06 11:39:25;;;;;;;1999.90;999.90;;;23.80;99.90;;;;;;5051639;28;20527;-72
2022/09/06 11:41:52;;;;;;;1999.90;999.90;;;24.00;99.90;;;;;;5051151;28;20501;-71
2022/09/06 11:45:06;;;;;;;1999.90;999.90;;;24.10;99.80;;;;;;5050087;28;20596;-70
2022/09/06 11:47:38;;;;;;;1999.90;999.90;;;24.20;99.60;;;;;;5030858;28;20851;-71
2022/09/06 11:51:00;;;;;;;1999.90;999.90;;;24.00;99.80;;;;;;5031336;28;20474;-71
2022/09/06 11:53:29;;;;;;;1999.90;999.90;;;24.20;99.50;;;;;;5051420;28;20447;-72
2022/09/06 11:56:12;;;;;;;1999.90;999.90;;;24.50;99.40;;;;;;5051095;28;20466;-68
2022/09/06 11:58:49;;;;;;;1999.90;999.90;;;24.80;98.50;;;;;;5048588;28;20435;-68
2022/09/06 12:01:37;;;;;;;1999.90;999.90;;;24.70;98.20;;;;;;5054926;28;20512;-70
2022/09/06 12:04:07;;;;;;;1999.90;999.90;;;24.80;98.30;;;;;;5054957;28;20450;-71
2022/09/06 12:06:38;;;;;;;1999.90;999.90;;;24.90;98.60;;;;;;5053268;28;20523;-70
2022/09/06 12:09:27;;;;;;;1999.90;999.90;;;24.90;98.40;;;;;;5047443;28;20963;-70
2022/09/06 12:11:55;;;;;;;1999.90;999.90;;;25.20;97.60;;;;;;5045924;28;20466;-67
2022/09/06 12:14:38;;;;;;;1999.90;999.90;;;25.00;97.90;;;;;;5050732;28;20518;-70